createdAt,value
2023-05-02T00:01:11.676Z,10.50
2023-05-02T00:03:39.976Z,11.13
2023-05-02T00:06:11.481Z,8.07
2023-05-02T00:08:41.732Z,10.43
2023-05-02T00:11:14.035Z,8.80
2023-05-02T00:13:44.139Z,11.43
2023-05-02T00:16:16.967Z,6.73
2023-05-02T00:18:44.940Z,9.13
2023-05-02T00:21:13.208Z,8.50
2023-05-02T00:23:44.057Z,8.97
2023-05-02T00:26:13.913Z,9.07
2023-05-02T00:28:41.878Z,9.20
2023-05-02T00:31:16.713Z,8.23
2023-05-02T00:33:44.953Z,9.67
2023-05-02T00:36:16.547Z,9.00
2023-05-02T00:38:47.470Z,9.57
2023-05-02T00:41:18.455Z,11.30
2023-05-02T00:43:49.054Z,6.23
2023-05-02T00:46:17.817Z,8.80
2023-05-02T00:48:56.746Z,9.60
2023-05-02T00:51:29.841Z,8.73
2023-05-02T00:53:58.034Z,7.83
2023-05-02T00:56:38.776Z,10.07
2023-05-02T00:59:07.792Z,9.27
2023-05-02T01:01:41.941Z,6.70
2023-05-02T01:04:20.777Z,12.53
2023-05-02T01:06:55.265Z,7.10
2023-05-02T01:09:35.648Z,6.83
2023-05-02T01:12:08.918Z,8.17
2023-05-02T01:14:42.339Z,8.93
2023-05-02T01:17:13.526Z,8.90
2023-05-02T01:19:46.973Z,9.13
2023-05-02T01:22:15.717Z,8.53
2023-05-02T01:24:54.641Z,7.93
2023-05-02T01:27:34.280Z,8.93
2023-05-02T01:30:18.511Z,6.67
2023-05-02T01:32:49.779Z,8.50
2023-05-02T01:35:18.911Z,9.87
2023-05-02T01:37:52.266Z,8.17
2023-05-02T01:40:25.782Z,7.77
2023-05-02T01:42:54.420Z,8.97
2023-05-02T01:45:25.986Z,8.30
2023-05-02T01:47:54.646Z,9.33
2023-05-02T01:50:27.801Z,7.47
2023-05-02T01:53:14.057Z,9.27
2023-05-02T01:55:49.857Z,8.57
2023-05-02T01:58:23.136Z,9.77
2023-05-02T02:00:53.100Z,8.93
2023-05-02T02:03:23.702Z,8.87
2023-05-02T02:05:59.642Z,8.83
2023-05-02T02:08:31.153Z,9.23
2023-05-02T02:11:05.576Z,11.00
2023-05-02T02:13:52.059Z,9.07
2023-05-02T02:16:26.536Z,8.30
2023-05-02T02:18:56.582Z,8.40
2023-05-02T02:21:25.499Z,10.50
2023-05-02T02:23:55.608Z,11.70
2023-05-02T02:26:23.461Z,7.50
2023-05-02T02:28:52.263Z,9.77
2023-05-02T02:31:26.122Z,8.77
2023-05-02T02:33:54.292Z,8.77
2023-05-02T02:36:27.214Z,7.03
2023-05-02T02:39:01.318Z,8.27
2023-05-02T02:41:38.981Z,9.50
2023-05-02T02:44:13.528Z,8.80
2023-05-02T02:46:52.859Z,7.73
2023-05-02T02:49:37.372Z,10.33
2023-05-02T02:52:12.910Z,8.53
2023-05-02T02:54:46.613Z,8.80
2023-05-02T02:57:18.317Z,11.00
2023-05-02T02:59:53.441Z,9.00
2023-05-02T03:02:30.656Z,9.97
2023-05-02T03:04:59.116Z,8.83
2023-05-02T03:07:29.621Z,9.03
2023-05-02T03:10:01.706Z,7.90
2023-05-02T03:12:36.107Z,9.90
2023-05-02T03:15:17.792Z,12.57
2023-05-02T03:17:51.729Z,9.97
2023-05-02T03:20:24.900Z,9.77
2023-05-02T03:22:54.024Z,12.23
2023-05-02T03:25:22.654Z,9.47
2023-05-02T03:27:53.180Z,8.70
2023-05-02T03:30:22.745Z,20.23
2023-05-02T03:32:54.600Z,9.70
2023-05-02T03:35:32.438Z,12.10
2023-05-02T03:38:06.898Z,9.43
2023-05-02T03:40:34.924Z,14.43
2023-05-02T03:43:04.834Z,10.20
2023-05-02T03:45:32.586Z,10.00
2023-05-02T03:48:02.603Z,13.33
2023-05-02T03:50:31.081Z,11.00
2023-05-02T03:53:10.560Z,10.47
2023-05-02T03:55:41.069Z,12.23
2023-05-02T03:58:08.817Z,12.70
2023-05-02T04:00:38.629Z,11.70
2023-05-02T04:03:08.821Z,13.43
2023-05-02T04:05:37.367Z,12.00
2023-05-02T04:08:08.691Z,11.67
2023-05-02T04:10:37.190Z,10.20
2023-05-02T04:13:05.174Z,13.13
2023-05-02T04:15:33.647Z,9.93
2023-05-02T04:18:03.238Z,9.57
2023-05-02T04:20:34.276Z,9.27
2023-05-02T04:23:02.644Z,11.90
2023-05-02T04:25:31.138Z,13.53
2023-05-02T04:27:58.872Z,10.70
2023-05-02T04:30:28.622Z,11.30
2023-05-02T04:32:59.643Z,9.67
2023-05-02T04:35:27.834Z,9.50
2023-05-02T04:37:59.876Z,11.53
2023-05-02T04:40:30.594Z,13.10
2023-05-02T04:43:07.905Z,11.67
2023-05-02T04:45:37.338Z,10.80
2023-05-02T04:48:07.085Z,12.67
2023-05-02T04:50:41.615Z,10.27
2023-05-02T04:53:12.186Z,11.07
2023-05-02T04:55:43.262Z,12.53
2023-05-02T04:58:11.611Z,12.17
2023-05-02T05:00:43.163Z,11.00
2023-05-02T05:03:13.723Z,10.17
2023-05-02T05:05:47.988Z,11.23
2023-05-02T05:08:23.635Z,13.90
2023-05-02T05:10:52.775Z,12.40
2023-05-02T05:13:24.782Z,13.50
2023-05-02T05:15:56.156Z,13.27
2023-05-02T05:18:24.614Z,12.07
2023-05-02T05:20:52.459Z,15.20
2023-05-02T05:23:24.081Z,14.93
2023-05-02T05:25:53.073Z,18.77
2023-05-02T05:28:24.110Z,13.10
2023-05-02T05:30:55.422Z,12.57
2023-05-02T05:33:23.685Z,17.97
2023-05-02T05:38:42.981Z,14.43
2023-05-02T05:41:12.297Z,20.17
2023-05-02T05:43:45.828Z,13.90
2023-05-02T05:46:13.970Z,16.03
2023-05-02T05:48:43.930Z,17.93
2023-05-02T05:51:14.541Z,16.60
2023-05-02T05:53:45.302Z,16.53
2023-05-02T05:56:15.555Z,16.37
2023-05-02T05:58:44.372Z,17.90
2023-05-02T06:01:18.014Z,16.10
2023-05-02T06:03:49.856Z,19.37
2023-05-02T06:06:18.556Z,20.00
2023-05-02T06:08:48.701Z,17.27
2023-05-02T06:11:20.159Z,15.23
2023-05-02T06:14:00.978Z,17.57
2023-05-02T06:16:32.394Z,15.47
2023-05-02T06:19:03.847Z,27.60
2023-05-02T06:21:34.393Z,19.27
2023-05-02T06:24:07.641Z,20.77
2023-05-02T06:26:35.989Z,22.90
2023-05-02T06:29:04.151Z,23.60
2023-05-02T06:31:32.753Z,29.10
2023-05-02T06:34:01.498Z,22.03
2023-05-02T06:36:30.561Z,19.10
2023-05-02T06:39:22.544Z,20.80
2023-05-02T06:41:55.543Z,23.10
2023-05-02T06:44:24.047Z,25.13
2023-05-02T06:46:55.716Z,24.90
2023-05-02T06:49:25.220Z,24.00
2023-05-02T06:51:56.555Z,23.63
2023-05-02T06:54:28.812Z,24.40
2023-05-02T06:56:58.241Z,22.10
2023-05-02T06:59:29.022Z,25.40
2023-05-02T07:01:57.181Z,27.23
2023-05-02T07:04:27.398Z,29.90
2023-05-02T07:07:02.303Z,28.40
2023-05-02T07:09:32.512Z,24.07
2023-05-02T07:12:05.330Z,27.33
2023-05-02T07:14:50.938Z,31.50
2023-05-02T07:17:19.587Z,26.67
2023-05-02T07:19:49.920Z,30.20
2023-05-02T07:22:30.866Z,28.00
2023-05-02T07:24:59.764Z,30.13
2023-05-02T07:27:33.419Z,29.03
2023-05-02T07:30:04.418Z,38.90
2023-05-02T07:32:36.535Z,35.30
2023-05-02T07:35:05.292Z,34.90
2023-05-02T07:37:40.882Z,35.03
2023-05-02T07:40:13.503Z,33.53
2023-05-02T07:42:44.460Z,40.37
2023-05-02T07:45:14.497Z,40.97
2023-05-02T07:47:47.456Z,47.67
2023-05-02T07:50:26.330Z,37.13
2023-05-02T07:52:55.127Z,42.03
2023-05-02T07:55:28.822Z,37.07
2023-05-02T07:57:58.522Z,40.57
2023-05-02T08:00:27.673Z,42.87
2023-05-02T08:02:57.033Z,33.90
2023-05-02T08:05:26.693Z,38.27
2023-05-02T08:07:57.819Z,37.77
2023-05-02T08:10:28.943Z,43.90
2023-05-02T08:13:01.676Z,40.53
2023-05-02T08:15:33.462Z,39.53
2023-05-02T08:18:07.057Z,40.27
2023-05-02T08:20:42.357Z,40.37
2023-05-02T08:23:15.333Z,38.30
2023-05-02T08:25:46.189Z,42.80
2023-05-02T08:28:17.936Z,35.70
2023-05-02T08:30:46.458Z,37.83
2023-05-02T08:33:14.683Z,43.63
2023-05-02T08:35:43.294Z,38.23
2023-05-02T08:38:12.441Z,36.50
2023-05-02T08:40:46.827Z,34.30
2023-05-02T08:43:20.079Z,37.20
2023-05-02T08:45:48.624Z,38.60
2023-05-02T08:48:20.462Z,42.17
2023-05-02T08:50:49.987Z,40.90
2023-05-02T08:53:22.685Z,37.00
2023-05-02T08:55:53.856Z,40.70
2023-05-02T08:58:23.590Z,42.47
2023-05-02T09:00:54.708Z,36.67
2023-05-02T09:03:29.136Z,40.20
2023-05-02T09:06:05.598Z,43.83
2023-05-02T09:08:35.223Z,36.90
2023-05-02T09:11:03.998Z,42.67
2023-05-02T09:13:37.661Z,37.30
2023-05-02T09:16:08.855Z,34.60
2023-05-02T09:18:40.358Z,32.37
2023-05-02T09:21:13.045Z,39.03
2023-05-02T09:23:45.134Z,33.50
2023-05-02T09:26:15.433Z,34.10
2023-05-02T09:28:50.550Z,31.40
2023-05-02T09:31:43.679Z,30.67
2023-05-02T09:34:13.099Z,30.00
2023-05-02T09:36:45.523Z,31.50
2023-05-02T09:39:23.829Z,29.43
2023-05-02T09:41:54.428Z,29.40
2023-05-02T09:44:27.540Z,33.60
2023-05-02T09:46:57.714Z,30.40
2023-05-02T09:49:45.687Z,30.60
2023-05-02T09:52:15.659Z,27.77
2023-05-02T09:54:48.947Z,30.27
2023-05-02T09:57:20.586Z,26.40
2023-05-02T10:00:11.809Z,26.50
2023-05-02T10:02:51.708Z,30.30
2023-05-02T10:05:21.663Z,29.20
2023-05-02T10:07:54.269Z,27.90
2023-05-02T10:10:27.518Z,27.10
2023-05-02T10:12:55.790Z,27.10
2023-05-02T10:15:31.076Z,20.87
2023-05-02T10:18:13.790Z,22.53
2023-05-02T10:20:48.556Z,22.90
2023-05-02T10:23:31.449Z,27.83
2023-05-02T10:26:05.566Z,22.30
2023-05-02T10:28:35.218Z,24.33
2023-05-02T10:31:11.026Z,26.07
2023-05-02T10:33:40.482Z,27.10
2023-05-02T10:36:12.827Z,28.60
2023-05-02T10:38:43.591Z,22.60
2023-05-02T10:41:17.078Z,27.80
2023-05-02T10:43:49.558Z,28.03
2023-05-02T10:46:37.788Z,24.53
2023-05-02T10:49:07.356Z,22.23
2023-05-02T10:51:36.405Z,25.90
2023-05-02T10:54:23.413Z,24.10
2023-05-02T10:57:13.055Z,26.33
2023-05-02T10:59:47.906Z,29.70
2023-05-02T11:02:52.082Z,29.13
2023-05-02T11:05:20.234Z,27.97
2023-05-02T11:07:52.807Z,30.17
2023-05-02T11:10:28.636Z,27.30
2023-05-02T11:13:01.175Z,35.20
2023-05-02T11:15:58.490Z,24.80
2023-05-02T11:18:28.802Z,29.83
2023-05-02T11:21:30.788Z,33.67
2023-05-02T11:24:38.376Z,29.93
2023-05-02T11:27:47.012Z,33.00
2023-05-02T11:30:16.359Z,34.63
2023-05-02T11:33:13.596Z,35.17
2023-05-02T11:35:48.917Z,34.50
2023-05-02T11:38:20.416Z,29.73
2023-05-02T11:41:01.028Z,29.90
2023-05-02T11:43:32.839Z,31.07
2023-05-02T11:46:05.847Z,33.93
2023-05-02T11:48:35.389Z,29.37
2023-05-02T11:51:07.418Z,33.93
2023-05-02T11:53:37.244Z,34.37
2023-05-02T11:56:12.279Z,37.70
2023-05-02T11:58:40.624Z,36.30
2023-05-02T12:01:15.299Z,34.43
2023-05-02T12:03:45.855Z,38.23
2023-05-02T12:06:18.993Z,31.97
2023-05-02T12:08:50.106Z,32.10
2023-05-02T12:11:22.473Z,29.90
2023-05-02T12:13:53.302Z,30.40
2023-05-02T12:16:22.361Z,30.20
2023-05-02T12:19:01.566Z,30.33
2023-05-02T12:21:34.524Z,32.27
2023-05-02T12:24:06.264Z,34.23
2023-05-02T12:26:37.180Z,35.63
2023-05-02T12:29:10.187Z,33.77
2023-05-02T12:31:38.962Z,29.73
2023-05-02T12:34:12.995Z,28.57
2023-05-02T12:36:48.021Z,30.03
2023-05-02T12:39:18.035Z,30.93
2023-05-02T12:41:46.489Z,33.93
2023-05-02T12:44:19.203Z,31.27
2023-05-02T12:47:00.258Z,34.90
2023-05-02T12:49:31.580Z,30.80
2023-05-02T12:52:12.340Z,35.13
2023-05-02T12:54:41.150Z,27.87
2023-05-02T12:57:13.605Z,32.07
2023-05-02T12:59:43.947Z,30.83
2023-05-02T13:02:11.778Z,30.83
2023-05-02T13:04:43.323Z,29.73
2023-05-02T13:07:13.400Z,28.13
2023-05-02T13:09:44.124Z,28.07
2023-05-02T13:12:13.746Z,28.80
2023-05-02T13:14:44.830Z,27.93
2023-05-02T13:17:14.877Z,36.47
2023-05-02T13:19:53.997Z,26.87
2023-05-02T13:22:30.171Z,30.97
2023-05-02T13:25:03.137Z,28.97
2023-05-02T13:27:31.385Z,32.37
2023-05-02T13:30:04.832Z,27.93
2023-05-02T13:32:38.702Z,29.20
2023-05-02T13:35:14.207Z,26.20
2023-05-02T13:37:47.995Z,24.10
2023-05-02T13:40:17.450Z,20.17
2023-05-02T13:42:48.509Z,23.37
2023-05-02T13:45:19.445Z,18.83
2023-05-02T13:47:47.875Z,17.43
2023-05-02T13:50:21.115Z,17.93
2023-05-02T13:52:53.253Z,18.13
2023-05-02T13:55:26.425Z,15.80
2023-05-02T13:57:58.867Z,19.03
2023-05-02T14:00:29.052Z,19.77
2023-05-02T14:03:00.304Z,23.90
2023-05-02T14:05:33.088Z,21.80
2023-05-02T14:08:11.122Z,20.53
2023-05-02T14:10:42.367Z,19.43
2023-05-02T14:13:14.612Z,16.90
2023-05-02T14:15:43.250Z,18.20
2023-05-02T14:18:14.009Z,18.80
2023-05-02T14:20:42.578Z,20.03
2023-05-02T14:23:11.999Z,19.80
2023-05-02T14:25:41.632Z,20.97
2023-05-02T14:28:14.753Z,23.60
2023-05-02T14:30:43.966Z,13.60
2023-05-02T14:33:25.800Z,20.57
2023-05-02T14:35:57.269Z,18.50
2023-05-02T14:38:30.280Z,18.63
2023-05-02T14:41:00.813Z,18.73
2023-05-02T14:43:28.898Z,20.30
2023-05-02T14:45:57.814Z,17.73
2023-05-02T14:48:26.076Z,16.73
2023-05-02T14:50:59.856Z,16.97
2023-05-02T14:53:34.371Z,18.60
2023-05-02T14:56:04.354Z,18.47
2023-05-02T14:58:38.427Z,15.57
2023-05-02T15:01:16.290Z,15.27
2023-05-02T15:04:04.366Z,15.13
2023-05-02T15:06:34.470Z,13.60
2023-05-02T15:09:07.806Z,17.10
2023-05-02T15:11:41.494Z,14.10
2023-05-02T15:14:14.819Z,14.27
2023-05-02T15:16:50.322Z,13.73
2023-05-02T15:19:18.563Z,11.63
2023-05-02T15:21:46.933Z,11.13
2023-05-02T15:24:23.335Z,9.73
2023-05-02T15:26:52.031Z,9.20
2023-05-02T15:29:19.897Z,13.00
2023-05-02T15:31:48.006Z,10.77
2023-05-02T15:34:16.118Z,9.30
2023-05-02T15:36:48.803Z,10.40
2023-05-02T15:39:23.118Z,11.57
2023-05-02T15:41:52.949Z,9.50
2023-05-02T15:44:21.556Z,5.87
2023-05-02T15:46:50.001Z,13.30
2023-05-02T15:49:18.172Z,6.30
2023-05-02T15:51:48.429Z,6.13
2023-05-02T15:54:21.870Z,7.33
2023-05-02T15:56:55.629Z,7.40
2023-05-02T15:59:23.757Z,7.83
2023-05-02T16:01:59.174Z,6.63
2023-05-02T16:04:29.475Z,7.57
2023-05-02T16:06:59.386Z,5.10
2023-05-02T16:09:33.864Z,6.93
2023-05-02T16:12:03.959Z,5.90
2023-05-02T16:14:35.246Z,3.30
2023-05-02T16:17:04.155Z,4.50
2023-05-02T16:19:38.799Z,4.17
2023-05-02T16:22:11.534Z,19.33
2023-05-02T16:24:41.272Z,4.33
2023-05-02T16:27:10.244Z,3.77
2023-05-02T16:29:42.131Z,3.33
2023-05-02T16:32:12.540Z,7.33
2023-05-02T16:34:43.227Z,4.67
2023-05-02T16:37:11.658Z,5.07
2023-05-02T16:39:41.530Z,3.60
2023-05-02T16:42:15.171Z,5.17
2023-05-02T16:44:43.728Z,3.80
2023-05-02T16:47:14.060Z,4.10
2023-05-02T16:49:46.108Z,5.33
2023-05-02T16:52:18.984Z,5.30
2023-05-02T16:54:48.515Z,4.13
2023-05-02T16:57:20.024Z,5.57
2023-05-02T17:00:00.873Z,4.87
2023-05-02T17:02:30.998Z,4.73
2023-05-02T17:04:58.960Z,4.40
2023-05-02T17:07:28.657Z,7.30
2023-05-02T17:09:58.511Z,5.70
2023-05-02T17:12:34.203Z,5.30
2023-05-02T17:15:04.507Z,4.70
2023-05-02T17:17:36.696Z,5.13
2023-05-02T17:20:07.392Z,5.43
2023-05-02T17:22:35.672Z,5.10
2023-05-02T17:25:06.696Z,4.00
2023-05-02T17:27:34.717Z,5.83
2023-05-02T17:30:03.330Z,6.63
2023-05-02T17:32:34.123Z,4.53
2023-05-02T17:35:03.365Z,4.87
2023-05-02T17:37:34.698Z,4.53
2023-05-02T17:40:06.097Z,4.20
2023-05-02T17:42:34.666Z,5.50
2023-05-02T17:45:06.523Z,4.50
2023-05-02T17:47:36.110Z,7.10
2023-05-02T17:50:05.430Z,6.60
2023-05-02T17:52:35.949Z,6.23
2023-05-02T17:55:07.185Z,5.83
2023-05-02T17:57:35.513Z,5.57
2023-05-02T18:00:05.159Z,7.47
2023-05-02T18:02:35.402Z,6.13
2023-05-02T18:05:04.226Z,6.83
2023-05-02T18:07:32.613Z,6.13
2023-05-02T18:10:10.035Z,7.53
2023-05-02T18:12:39.373Z,7.83
2023-05-02T18:15:09.758Z,6.27
2023-05-02T18:17:40.939Z,7.07
2023-05-02T18:20:12.160Z,9.23
2023-05-02T18:22:44.726Z,5.50
2023-05-02T18:25:12.954Z,8.37
2023-05-02T18:28:00.566Z,8.67
2023-05-02T18:30:29.308Z,7.90
2023-05-02T18:33:00.734Z,6.70
2023-05-02T18:35:29.159Z,6.03
2023-05-02T18:38:00.386Z,8.40
2023-05-02T18:40:28.877Z,6.57
2023-05-02T18:42:59.397Z,6.20
2023-05-02T18:45:30.749Z,5.83
2023-05-02T18:48:04.635Z,7.70
2023-05-02T18:50:33.080Z,6.03
2023-05-02T18:53:02.144Z,6.63
2023-05-02T18:55:44.946Z,8.53
2023-05-02T18:58:22.314Z,6.90
2023-05-02T19:00:50.960Z,5.97
2023-05-02T19:03:25.457Z,6.13
2023-05-02T19:05:53.857Z,9.23
2023-05-02T19:08:23.021Z,6.13
2023-05-02T19:10:53.968Z,6.10
2023-05-02T19:13:30.166Z,6.90
2023-05-02T19:15:58.470Z,7.77
2023-05-02T19:18:26.434Z,7.93
2023-05-02T19:20:57.773Z,6.53
2023-05-02T19:23:26.207Z,7.57
2023-05-02T19:25:57.198Z,5.47
2023-05-02T19:28:28.087Z,7.33
2023-05-02T19:31:00.561Z,8.57
2023-05-02T19:33:31.876Z,5.33
2023-05-02T19:36:04.816Z,6.43
2023-05-02T19:38:37.622Z,5.63
2023-05-02T19:41:12.363Z,5.70
2023-05-02T19:43:42.637Z,7.10
2023-05-02T19:46:13.456Z,5.97
2023-05-02T19:48:42.928Z,7.27
2023-05-02T19:51:11.274Z,6.53
2023-05-02T19:53:42.290Z,9.70
2023-05-02T19:56:12.783Z,6.00
2023-05-02T19:58:43.746Z,6.27
2023-05-02T20:01:15.681Z,7.40
2023-05-02T20:03:43.885Z,10.10
2023-05-02T20:06:13.320Z,7.50
2023-05-02T20:08:45.528Z,6.70
2023-05-02T20:11:13.463Z,8.63
2023-05-02T20:13:43.263Z,7.30
2023-05-02T20:16:14.921Z,7.07
2023-05-02T20:18:43.454Z,9.70
2023-05-02T20:21:11.288Z,10.23
2023-05-02T20:23:40.767Z,7.67
2023-05-02T20:26:08.613Z,6.50
2023-05-02T20:28:38.006Z,6.63
2023-05-02T20:31:10.498Z,7.57
2023-05-02T20:33:45.777Z,11.53
2023-05-02T20:36:18.971Z,8.17
2023-05-02T20:38:54.199Z,7.43
2023-05-02T20:41:27.112Z,7.97
2023-05-02T20:43:57.295Z,11.87
2023-05-02T20:46:26.979Z,6.20
2023-05-02T20:48:55.729Z,6.93
2023-05-02T20:51:26.677Z,7.73
2023-05-02T20:53:54.791Z,9.17
2023-05-02T20:56:23.261Z,9.43
2023-05-02T20:58:51.568Z,9.60
2023-05-02T21:01:25.692Z,11.57
2023-05-02T21:03:57.258Z,9.87
2023-05-02T21:06:27.624Z,12.33
2023-05-02T21:08:56.937Z,12.50
2023-05-02T21:11:27.515Z,8.17
2023-05-02T21:13:55.509Z,10.93
2023-05-02T21:16:26.689Z,8.00
2023-05-02T21:18:57.002Z,8.00
2023-05-02T21:21:25.649Z,11.07
2023-05-02T21:23:53.930Z,8.13
2023-05-02T21:26:21.948Z,9.03
2023-05-02T21:28:49.913Z,8.10
2023-05-02T21:31:18.334Z,8.50
2023-05-02T21:33:46.470Z,8.07
2023-05-02T21:36:16.073Z,8.73
2023-05-02T21:38:45.707Z,11.00
2023-05-02T21:41:19.129Z,9.67
2023-05-02T21:43:49.711Z,9.10
2023-05-02T21:46:17.711Z,8.70
2023-05-02T21:48:48.024Z,8.80
2023-05-02T21:51:17.939Z,7.53
2023-05-02T21:53:55.461Z,8.63
2023-05-02T21:56:24.052Z,8.50
2023-05-02T21:58:52.905Z,11.27
2023-05-02T22:01:23.631Z,8.47
2023-05-02T22:03:56.731Z,7.57
2023-05-02T22:06:26.902Z,7.13
2023-05-02T22:09:11.522Z,9.60
2023-05-02T22:11:42.324Z,8.90
2023-05-02T22:14:13.522Z,7.70
2023-05-02T22:16:44.583Z,10.73
2023-05-02T22:19:14.601Z,7.50
2023-05-02T22:21:46.683Z,8.63
2023-05-02T22:24:15.159Z,9.50
2023-05-02T22:26:43.507Z,10.13
2023-05-02T22:29:14.368Z,8.87
2023-05-02T22:31:45.089Z,9.30
2023-05-02T22:34:18.291Z,10.50
2023-05-02T22:36:48.943Z,9.03
2023-05-02T22:39:20.665Z,13.50
2023-05-02T22:41:48.450Z,9.83
2023-05-02T22:44:16.382Z,8.53
2023-05-02T22:46:44.519Z,9.17
2023-05-02T22:49:12.776Z,7.90
2023-05-02T22:51:42.301Z,9.00
2023-05-02T22:54:29.236Z,9.63
2023-05-02T22:56:58.606Z,6.30
2023-05-02T22:59:32.451Z,7.60
2023-05-02T23:02:01.538Z,10.60
2023-05-02T23:04:35.282Z,8.50
2023-05-02T23:07:05.025Z,8.67
2023-05-02T23:09:36.033Z,7.57
2023-05-02T23:12:04.264Z,5.80
2023-05-02T23:14:34.937Z,8.70
2023-05-02T23:17:03.746Z,11.00
2023-05-02T23:19:32.290Z,11.80
2023-05-02T23:22:00.846Z,8.30
2023-05-02T23:24:29.721Z,9.47
2023-05-02T23:27:01.949Z,9.07
2023-05-02T23:29:30.340Z,7.73
2023-05-02T23:31:58.232Z,9.10
2023-05-02T23:34:26.715Z,11.50
2023-05-02T23:36:54.852Z,10.37
2023-05-02T23:39:23.215Z,8.90
2023-05-02T23:41:53.903Z,9.00
2023-05-02T23:44:23.871Z,10.50
2023-05-02T23:46:52.224Z,8.40
2023-05-02T23:49:24.712Z,10.23
2023-05-02T23:51:52.589Z,8.60
2023-05-02T23:54:32.623Z,7.93
2023-05-02T23:57:04.585Z,10.10
2023-05-02T23:59:35.542Z,18.43
